Weather reports worldwide

Advertisment
Braemar, United Kingdom (99089): temperature & dewpoint: 09.11.2018 05:00:00 - 15.11.2018 05:00:00 (GMT)Braemar, United Kingdom (99089): temperature -20cm & temperature -100cm: 09.11.2018 05:00:00 - 15.11.2018 05:00:00 (GMT)Braemar, United Kingdom (99089): precipitation: 09.11.2018 05:00:00 - 15.11.2018 05:00:00 (GMT)
Date & Time tt [°C] td [°C] tt -20cm [°C] tt -100cm [°C] rr [mm]
15.11.2018 05:00:00 - - - - -
15.11.2018 04:00:00 11,5 9,5 - - 0,0
15.11.2018 03:00:00 11,5 9,5 - - 0,0
15.11.2018 02:00:00 11,3 9,4 - - 0,0
15.11.2018 01:00:00 11,5 9,5 - - 0,0
15.11.2018 00:00:00 11,6 9,7 - - 0,0
14.11.2018 23:00:00 12,1 9,7 - - 0,2
14.11.2018 22:00:00 12,5 10,0 - - 0,0
14.11.2018 21:00:00 12,8 10,0 - - 0,0
14.11.2018 20:00:00 12,4 10,0 - - 0,0
14.11.2018 19:00:00 12,5 10,0 - - 0,0
14.11.2018 18:00:00 12,7 10,0 - - 0,0
14.11.2018 17:00:00 12,6 10,4 - - 0,0
14.11.2018 16:00:00 12,5 10,5 - - 0,0
14.11.2018 15:00:00 13,3 10,6 - - 0,0
14.11.2018 14:00:00 13,9 10,6 - - 0,0
14.11.2018 13:00:00 14,3 10,3 - - 0,0
14.11.2018 12:00:00 - - - - 0,0
14.11.2018 11:00:00 - - - - -
14.11.2018 10:00:00 - - - - -
14.11.2018 09:00:00 - - - - -
14.11.2018 08:00:00 - - - - -
14.11.2018 07:00:00 - - - - -
14.11.2018 06:00:00 - - - - -
14.11.2018 05:00:00 - - - - -
14.11.2018 04:00:00 - - - - -
14.11.2018 03:00:00 - - - - -
14.11.2018 02:00:00 - - - - -
14.11.2018 01:00:00 - - - - -
14.11.2018 00:00:00 - - - - -
13.11.2018 23:00:00 - - - - -
13.11.2018 22:00:00 - - - - -
13.11.2018 21:00:00 - - - - -
13.11.2018 20:00:00 - - - - -
13.11.2018 19:00:00 - - - - -
13.11.2018 18:00:00 - - - - -
13.11.2018 17:00:00 - - - - -
13.11.2018 16:00:00 - - - - -
13.11.2018 15:00:00 - - - - -
13.11.2018 14:00:00 - - - - -
13.11.2018 13:00:00 - - - - -
13.11.2018 12:00:00 - - - - -
13.11.2018 11:00:00 - - - - -
13.11.2018 10:00:00 - - - - -
13.11.2018 09:00:00 - - - - -
13.11.2018 08:00:00 - - - - -
13.11.2018 07:00:00 - - - - -
13.11.2018 06:00:00 - - - - -
13.11.2018 05:00:00 - - - - -
13.11.2018 04:00:00 - - - - -
13.11.2018 03:00:00 - - - - -
13.11.2018 02:00:00 - - - - -
13.11.2018 01:00:00 - - - - -
13.11.2018 00:00:00 - - - - -
12.11.2018 23:00:00 - - - - -
12.11.2018 22:00:00 - - - - -
12.11.2018 21:00:00 - - - - -
12.11.2018 20:00:00 - - - - -
12.11.2018 19:00:00 - - - - -
12.11.2018 18:00:00 - - - - -
12.11.2018 17:00:00 - - - - -
12.11.2018 16:00:00 - - - - -
12.11.2018 15:00:00 - - - - -
12.11.2018 14:00:00 - - - - -
12.11.2018 13:00:00 - - - - -
12.11.2018 12:00:00 8,4 5,6 - - 0,0
12.11.2018 11:00:00 8,0 6,0 - - 0,0
12.11.2018 10:00:00 8,1 5,9 - - 0,2
12.11.2018 09:00:00 8,0 5,5 6,0 7,2 0,0
12.11.2018 08:00:00 7,8 5,6 - - 0,0
12.11.2018 07:00:00 7,8 5,4 - - 0,0
12.11.2018 06:00:00 7,7 5,4 - - 0,0
12.11.2018 05:00:00 7,5 5,4 - - 0,0
12.11.2018 04:00:00 7,3 5,5 - - 0,2
12.11.2018 03:00:00 7,0 5,2 - - 0,0
12.11.2018 02:00:00 6,7 5,0 - - 0,0
12.11.2018 01:00:00 6,6 4,6 - - 0,0
12.11.2018 00:00:00 6,1 4,2 - - 0,0
11.11.2018 23:00:00 6,1 4,1 - - 0,0
11.11.2018 22:00:00 3,3 2,8 - - 0,0
11.11.2018 21:00:00 3,3 2,5 - - 0,0
11.11.2018 20:00:00 4,3 3,5 - - 0,0
11.11.2018 19:00:00 5,1 3,5 - - 0,0
11.11.2018 18:00:00 5,7 3,6 - - 0,0
11.11.2018 17:00:00 5,6 5,1 - - 0,2
11.11.2018 16:00:00 6,1 5,1 - - 1,0
11.11.2018 15:00:00 6,7 5,7 - - 0,4
11.11.2018 14:00:00 7,1 5,4 - - 0,0
11.11.2018 13:00:00 5,7 4,9 - - 0,0
11.11.2018 12:00:00 4,5 4,4 - - 0,0
11.11.2018 11:00:00 3,3 3,0 - - 0,2
11.11.2018 10:00:00 2,7 2,5 - - 0,0
11.11.2018 09:00:00 1,9 1,7 6,2 7,2 0,0
11.11.2018 08:00:00 1,5 1,4 - - 0,0
11.11.2018 07:00:00 1,6 1,3 - - 0,0
11.11.2018 06:00:00 2,3 1,8 - - 0,0
11.11.2018 05:00:00 4,2 3,1 - - 0,0
11.11.2018 04:00:00 5,0 3,0 - - 0,0
11.11.2018 03:00:00 5,0 3,2 - - 0,0
11.11.2018 02:00:00 5,6 3,8 - - 0,0
11.11.2018 01:00:00 5,3 4,9 - - 0,0
11.11.2018 00:00:00 5,1 4,8 - - 0,0
10.11.2018 23:00:00 4,7 4,4 - - 0,0
10.11.2018 22:00:00 5,1 4,3 - - 2,4
10.11.2018 21:00:00 5,2 4,8 - - 5,2
10.11.2018 20:00:00 5,5 4,8 - - 0,6
10.11.2018 19:00:00 6,0 4,3 - - 0,0
10.11.2018 18:00:00 6,3 4,1 - - 0,0
10.11.2018 17:00:00 6,9 4,0 - - 0,0
10.11.2018 16:00:00 7,1 4,2 - - 0,4
10.11.2018 15:00:00 6,4 4,0 - - 0,2
10.11.2018 14:00:00 7,9 2,9 - - 0,0
10.11.2018 13:00:00 8,0 1,8 - - 0,0
10.11.2018 12:00:00 7,8 2,4 - - 0,0
10.11.2018 11:00:00 7,8 2,6 - - 0,0
10.11.2018 10:00:00 7,3 3,4 - - 0,0
10.11.2018 09:00:00 7,3 4,4 6,5 7,2 0,0
10.11.2018 08:00:00 7,1 3,6 - - 0,0
10.11.2018 07:00:00 7,5 4,3 - - 0,0
10.11.2018 06:00:00 7,7 4,1 - - 0,0
10.11.2018 05:00:00 8,0 4,7 - - 0,0
10.11.2018 04:00:00 7,9 5,6 - - 0,0
10.11.2018 03:00:00 8,3 6,0 - - 0,8
10.11.2018 02:00:00 7,7 6,6 - - 1,0
10.11.2018 01:00:00 7,6 6,0 - - 3,2
10.11.2018 00:00:00 7,7 5,2 - - 4,2
09.11.2018 23:00:00 7,6 5,1 - - 4,4
09.11.2018 22:00:00 7,9 5,6 - - 0,0
09.11.2018 21:00:00 - - - - 0,0
09.11.2018 20:00:00 - - - - 0,0
09.11.2018 19:00:00 - - - - 0,0
09.11.2018 18:00:00 - - - - 0,0
09.11.2018 17:00:00 - - - - 0,0
09.11.2018 16:00:00 - - - - 0,0
09.11.2018 15:00:00 7,7 5,4 - - 0,0
09.11.2018 14:00:00 - - - - 0,0
09.11.2018 13:00:00 - - - - -
09.11.2018 12:00:00 - - - - -
09.11.2018 11:00:00 - - - - -
09.11.2018 10:00:00 - - - - -
09.11.2018 09:00:00 - - - - -
09.11.2018 08:00:00 6,8 3,1 - - 0,8
09.11.2018 07:00:00 6,8 3,1 - - 1,8
09.11.2018 06:00:00 6,8 3,1 - - 1,4
09.11.2018 05:00:00 6,8 3,1 - - 2,4

tt = temperature
td = dewpoint
tt -20cm = temperature -20cm
tt -100cm = temperature -100cm
rr = precipitation

Next stations